createdAt,value
2023-10-17T00:00:30.248Z,8.12
2023-10-17T00:02:58.365Z,8.09
2023-10-17T00:05:25.628Z,8.05
2023-10-17T00:07:52.914Z,8.10
2023-10-17T00:10:22.576Z,8.10
2023-10-17T00:12:49.642Z,8.06
2023-10-17T00:15:16.749Z,8.03
2023-10-17T00:17:43.837Z,8.02
2023-10-17T00:20:11.395Z,8.14
2023-10-17T00:22:38.425Z,8.11
2023-10-17T00:25:05.717Z,7.99
2023-10-17T00:27:35.280Z,7.97
2023-10-17T00:30:02.369Z,7.85
2023-10-17T00:32:29.468Z,7.93
2023-10-17T00:34:56.475Z,7.89
2023-10-17T00:37:23.534Z,7.82
2023-10-17T00:39:50.567Z,7.73
2023-10-17T00:42:17.602Z,7.60
2023-10-17T00:44:47.249Z,7.59
2023-10-17T00:47:14.469Z,7.66
2023-10-17T00:49:42.747Z,7.70
2023-10-17T00:52:11.839Z,7.80
2023-10-17T00:54:38.941Z,7.69
2023-10-17T00:57:06.046Z,7.84
2023-10-17T00:59:33.143Z,7.68
2023-10-17T01:02:04.421Z,7.70
2023-10-17T01:04:31.417Z,7.64
2023-10-17T01:06:58.437Z,7.53
2023-10-17T01:09:26.001Z,7.47
2023-10-17T01:11:53.150Z,7.54
2023-10-17T01:14:20.236Z,7.50
2023-10-17T01:16:47.292Z,7.49
2023-10-17T01:19:16.962Z,7.53
2023-10-17T01:21:43.954Z,7.51
2023-10-17T01:24:13.636Z,7.53
2023-10-17T01:26:40.680Z,7.55
2023-10-17T01:29:07.687Z,7.46
2023-10-17T01:31:34.689Z,7.49
2023-10-17T01:34:01.918Z,7.28
2023-10-17T01:36:29.020Z,7.38
2023-10-17T01:38:56.316Z,7.22
2023-10-17T01:41:26.110Z,7.14
2023-10-17T01:43:53.105Z,7.21
2023-10-17T01:46:20.167Z,7.24
2023-10-17T01:48:47.350Z,7.20
2023-10-17T01:51:14.907Z,7.35
2023-10-17T01:53:42.875Z,7.29
2023-10-17T01:56:10.178Z,7.32
2023-10-17T01:58:39.737Z,7.21
2023-10-17T02:01:06.741Z,7.17
2023-10-17T02:03:33.776Z,7.17
2023-10-17T02:06:00.856Z,7.19
2023-10-17T02:08:27.927Z,7.10
2023-10-17T02:10:54.969Z,7.23
2023-10-17T02:13:21.983Z,7.06
2023-10-17T02:15:51.701Z,7.13
2023-10-17T02:18:18.830Z,7.18
2023-10-17T02:20:45.873Z,7.17
2023-10-17T02:23:13.122Z,7.10
2023-10-17T02:25:40.129Z,6.99
2023-10-17T02:28:07.179Z,7.00
2023-10-17T02:30:34.420Z,7.11
2023-10-17T02:33:04.632Z,7.09
2023-10-17T02:35:31.666Z,7.26
2023-10-17T02:37:58.674Z,7.26
2023-10-17T02:40:25.653Z,7.24
2023-10-17T02:42:52.643Z,7.20
2023-10-17T02:45:19.681Z,7.24
2023-10-17T02:47:46.728Z,7.19
2023-10-17T02:50:16.501Z,7.21
2023-10-17T02:52:43.488Z,7.18
2023-10-17T02:55:10.477Z,7.17
2023-10-17T02:57:37.483Z,7.39
2023-10-17T03:00:05.824Z,7.34
2023-10-17T03:02:32.797Z,7.38
2023-10-17T03:04:59.953Z,7.35
2023-10-17T03:07:29.510Z,7.45
2023-10-17T03:09:56.494Z,7.28
2023-10-17T03:12:23.487Z,7.34
2023-10-17T03:14:50.486Z,7.34
2023-10-17T03:17:17.461Z,7.30
2023-10-17T03:19:44.492Z,7.36
2023-10-17T03:22:11.658Z,7.34
2023-10-17T03:24:41.320Z,7.27
2023-10-17T03:27:09.068Z,7.28
2023-10-17T03:29:36.117Z,7.16
2023-10-17T03:32:03.274Z,7.21
2023-10-17T03:34:30.222Z,7.11
2023-10-17T03:36:57.185Z,7.13
2023-10-17T03:39:24.314Z,7.20
2023-10-17T03:41:53.977Z,7.20
2023-10-17T03:44:20.904Z,7.12
2023-10-17T03:46:47.986Z,7.02
2023-10-17T03:49:15.827Z,7.17
2023-10-17T03:51:42.945Z,7.13
2023-10-17T03:54:10.029Z,7.16
2023-10-17T03:56:37.030Z,7.10
2023-10-17T03:59:06.614Z,6.99
2023-10-17T04:01:33.597Z,7.13
2023-10-17T04:04:05.090Z,7.05
2023-10-17T04:06:34.660Z,7.26
2023-10-17T04:09:02.662Z,7.11
2023-10-17T04:11:29.724Z,7.20
2023-10-17T04:13:59.107Z,7.09
2023-10-17T04:16:29.794Z,7.14
2023-10-17T04:18:56.905Z,7.13
2023-10-17T04:21:24.075Z,7.27
2023-10-17T04:23:51.089Z,7.06
2023-10-17T04:26:18.068Z,7.04
2023-10-17T04:28:45.605Z,7.14
2023-10-17T04:31:12.640Z,7.07
2023-10-17T04:33:42.291Z,7.06
2023-10-17T04:36:09.315Z,7.05
2023-10-17T04:38:36.302Z,7.10
2023-10-17T04:41:04.613Z,6.95
2023-10-17T04:43:31.557Z,7.07
2023-10-17T04:45:58.543Z,7.02
2023-10-17T04:48:25.540Z,7.11
2023-10-17T04:50:55.201Z,7.23
2023-10-17T04:53:22.199Z,7.10
2023-10-17T04:55:49.143Z,7.07
2023-10-17T04:58:16.108Z,7.17
2023-10-17T05:00:43.269Z,7.13
2023-10-17T05:03:10.738Z,7.12
2023-10-17T05:05:37.829Z,7.15
2023-10-17T05:08:07.851Z,7.33
2023-10-17T05:10:34.840Z,7.24
2023-10-17T05:13:01.776Z,7.28
2023-10-17T05:15:29.512Z,7.14
2023-10-17T05:17:56.614Z,7.36
2023-10-17T05:20:23.645Z,7.39
2023-10-17T05:22:50.617Z,7.28
2023-10-17T05:25:23.226Z,7.33
2023-10-17T05:27:50.262Z,7.25
2023-10-17T05:30:17.457Z,7.33
2023-10-17T05:32:44.512Z,7.39
2023-10-17T05:35:11.439Z,7.28
2023-10-17T05:37:38.590Z,7.28
2023-10-17T05:40:06.918Z,7.32
2023-10-17T05:42:36.508Z,7.32
2023-10-17T05:45:03.955Z,7.56
2023-10-17T05:47:31.058Z,7.40
2023-10-17T05:49:58.040Z,7.41
2023-10-17T05:52:25.826Z,7.52
2023-10-17T05:57:22.812Z,7.67
2023-10-17T05:59:52.379Z,7.51
2023-10-17T06:02:19.328Z,7.60
2023-10-17T06:04:46.576Z,7.67
2023-10-17T06:07:13.555Z,7.52
2023-10-17T06:09:40.903Z,7.56
2023-10-17T06:12:07.996Z,7.48
2023-10-17T06:14:35.043Z,7.61
2023-10-17T06:17:04.628Z,7.76
2023-10-17T06:19:31.738Z,7.55
2023-10-17T06:21:58.683Z,7.62
2023-10-17T06:24:25.652Z,7.73
2023-10-17T06:26:52.621Z,7.66
2023-10-17T06:29:19.599Z,7.55
2023-10-17T06:31:49.048Z,7.52
2023-10-17T06:34:19.954Z,7.60
2023-10-17T06:36:49.600Z,7.72
2023-10-17T06:39:16.608Z,7.68
2023-10-17T06:41:43.714Z,7.74
2023-10-17T06:44:10.693Z,7.76
2023-10-17T06:46:38.029Z,7.72
2023-10-17T06:49:05.099Z,7.68
2023-10-17T06:51:34.758Z,7.75
2023-10-17T06:54:01.838Z,7.78
2023-10-17T06:56:28.857Z,7.84
2023-10-17T06:58:55.797Z,8.12
2023-10-17T07:01:22.747Z,8.13
2023-10-17T07:03:49.768Z,8.21
2023-10-17T07:06:17.446Z,8.28
2023-10-17T07:08:48.867Z,8.28
2023-10-17T07:11:15.848Z,8.23
2023-10-17T07:13:54.277Z,8.36
2023-10-17T07:16:22.268Z,8.15
2023-10-17T07:18:49.313Z,8.20
2023-10-17T07:21:16.436Z,8.50
2023-10-17T07:23:44.940Z,8.29
2023-10-17T07:26:15.578Z,8.45
2023-10-17T07:28:42.768Z,8.60
2023-10-17T07:31:09.802Z,8.53
2023-10-17T07:33:36.812Z,8.71
2023-10-17T07:36:05.842Z,8.99
2023-10-17T07:38:33.090Z,9.08
2023-10-17T07:41:04.156Z,8.91
2023-10-17T07:43:33.765Z,8.90
2023-10-17T07:46:00.793Z,8.97
2023-10-17T07:48:28.080Z,8.90
2023-10-17T07:50:56.618Z,9.00
2023-10-17T07:53:23.831Z,9.10
2023-10-17T07:55:53.453Z,9.12
2023-10-17T07:58:20.782Z,9.03
2023-10-17T08:00:50.373Z,9.29
2023-10-17T08:03:17.573Z,9.44
2023-10-17T08:05:45.250Z,9.53
2023-10-17T08:08:16.244Z,9.40
2023-10-17T08:10:43.320Z,9.31
2023-10-17T08:13:10.327Z,9.35
2023-10-17T08:15:37.405Z,9.47
2023-10-17T08:18:07.717Z,9.59
2023-10-17T08:20:37.060Z,9.68
2023-10-17T08:23:04.275Z,9.79
2023-10-17T08:25:31.228Z,9.87
2023-10-17T08:27:58.562Z,9.79
2023-10-17T08:30:37.982Z,10.10
2023-10-17T08:33:08.228Z,10.01
2023-10-17T08:35:35.289Z,10.28
2023-10-17T08:38:02.259Z,10.20
2023-10-17T08:40:29.316Z,10.39
2023-10-17T08:42:56.804Z,10.34
2023-10-17T08:45:27.038Z,10.15
2023-10-17T08:47:56.465Z,10.26
2023-10-17T08:50:26.284Z,10.41
2023-10-17T08:52:53.348Z,10.54
2023-10-17T08:55:22.710Z,10.42
2023-10-17T08:57:51.222Z,10.39
2023-10-17T09:00:18.582Z,10.37
2023-10-17T09:02:56.639Z,10.61
2023-10-17T09:05:26.359Z,10.81
2023-10-17T09:07:54.799Z,10.90
2023-10-17T09:10:23.709Z,10.51
2023-10-17T09:12:57.574Z,10.55
2023-10-17T09:15:28.442Z,10.36
2023-10-17T09:18:02.412Z,10.43
2023-10-17T09:20:38.446Z,10.53
2023-10-17T09:23:22.946Z,10.74
2023-10-17T09:25:54.378Z,10.93
2023-10-17T09:28:22.384Z,10.99
2023-10-17T09:30:59.368Z,10.89
2023-10-17T09:33:30.862Z,11.00
2023-10-17T09:36:03.064Z,10.92
2023-10-17T09:38:31.658Z,11.35
2023-10-17T09:41:12.058Z,11.49
2023-10-17T09:43:43.264Z,11.53
2023-10-17T09:46:11.658Z,11.57
2023-10-17T09:48:44.222Z,11.51
2023-10-17T09:51:20.717Z,11.45
2023-10-17T09:53:55.003Z,11.51
2023-10-17T09:56:28.360Z,11.39
2023-10-17T09:59:01.123Z,11.49
2023-10-17T10:01:30.268Z,11.90
2023-10-17T10:04:02.271Z,11.92
2023-10-17T10:06:34.373Z,12.16
2023-10-17T10:09:25.604Z,12.05
2023-10-17T10:11:57.229Z,12.09
2023-10-17T10:14:38.472Z,12.34
2023-10-17T10:17:05.693Z,12.21
2023-10-17T10:20:03.023Z,12.35
2023-10-17T10:22:56.818Z,12.59
2023-10-17T10:25:24.080Z,12.34
2023-10-17T10:28:25.323Z,12.66
2023-10-17T10:30:52.344Z,13.06
2023-10-17T10:33:19.726Z,13.19
2023-10-17T10:35:46.765Z,13.23
2023-10-17T10:38:16.399Z,13.02
2023-10-17T10:40:45.656Z,13.25
2023-10-17T10:43:20.128Z,13.23
2023-10-17T10:45:47.573Z,13.31
2023-10-17T10:48:16.499Z,13.20
2023-10-17T10:50:46.245Z,13.08
2023-10-17T10:53:24.109Z,13.29
2023-10-17T10:55:55.790Z,12.92
2023-10-17T10:58:23.444Z,13.15
2023-10-17T11:00:50.553Z,13.07
2023-10-17T11:03:18.009Z,13.13
2023-10-17T11:05:55.488Z,13.22
2023-10-17T11:08:26.911Z,13.33
2023-10-17T11:11:00.494Z,13.02
2023-10-17T11:13:32.117Z,12.70
2023-10-17T11:15:59.548Z,12.88
2023-10-17T11:18:26.949Z,13.15
2023-10-17T11:20:57.031Z,12.72
2023-10-17T11:23:28.485Z,12.86
2023-10-17T11:25:57.411Z,13.45
2023-10-17T11:28:24.608Z,14.61
2023-10-17T11:30:52.201Z,15.42
2023-10-17T11:33:19.507Z,15.74
2023-10-17T11:35:50.949Z,18.72
2023-10-17T11:38:38.196Z,17.69
2023-10-17T11:41:11.000Z,19.13
2023-10-17T11:43:39.883Z,17.22
2023-10-17T11:46:07.048Z,15.80
2023-10-17T11:48:34.332Z,16.81
2023-10-17T11:51:05.852Z,17.05
2023-10-17T11:53:35.960Z,19.09
2023-10-17T11:56:03.208Z,16.68
2023-10-17T11:58:30.258Z,16.10
2023-10-17T12:00:58.124Z,17.73
2023-10-17T12:03:25.726Z,18.48
2023-10-17T12:05:53.574Z,18.64
2023-10-17T12:08:20.931Z,17.23
2023-10-17T12:10:51.807Z,16.33
2023-10-17T12:13:18.948Z,16.76
2023-10-17T12:15:46.517Z,15.83
2023-10-17T12:18:13.731Z,15.35
2023-10-17T12:20:40.768Z,14.65
2023-10-17T12:23:08.812Z,14.93
2023-10-17T12:25:35.921Z,14.98
2023-10-17T12:28:06.347Z,15.00
2023-10-17T12:30:34.636Z,15.06
2023-10-17T12:33:01.686Z,15.09
2023-10-17T12:35:31.576Z,15.00
2023-10-17T12:37:58.998Z,14.78
2023-10-17T12:40:26.452Z,14.25
2023-10-17T12:42:54.180Z,14.64
2023-10-17T12:45:24.049Z,14.51
2023-10-17T12:47:51.292Z,14.79
2023-10-17T12:50:18.940Z,14.67
2023-10-17T12:52:45.916Z,15.04
2023-10-17T12:55:13.096Z,15.45
2023-10-17T12:57:40.777Z,15.56
2023-10-17T13:00:09.648Z,15.58
2023-10-17T13:02:40.972Z,16.99
2023-10-17T13:05:08.693Z,18.11
2023-10-17T13:07:36.092Z,16.85
2023-10-17T13:10:03.629Z,16.85
2023-10-17T13:12:30.779Z,16.92
2023-10-17T13:14:57.804Z,18.02
2023-10-17T13:17:24.838Z,18.36
2023-10-17T13:19:54.448Z,17.66
2023-10-17T13:22:21.414Z,16.87
2023-10-17T13:24:48.556Z,17.04
2023-10-17T13:27:20.229Z,16.22
2023-10-17T13:29:54.452Z,16.38
2023-10-17T13:32:21.412Z,16.21
2023-10-17T13:34:48.597Z,16.31
2023-10-17T13:37:18.231Z,17.01
2023-10-17T13:39:45.251Z,19.87
2023-10-17T13:42:12.320Z,22.76
2023-10-17T13:44:39.397Z,25.53
2023-10-17T13:47:06.404Z,23.11
2023-10-17T13:49:35.292Z,22.55
2023-10-17T13:52:02.539Z,20.82
2023-10-17T13:54:32.772Z,19.89
2023-10-17T13:56:59.744Z,20.05
2023-10-17T13:59:26.807Z,19.92
2023-10-17T14:01:54.002Z,19.93
2023-10-17T14:04:21.060Z,18.42
2023-10-17T14:06:48.085Z,18.54
2023-10-17T14:09:15.069Z,18.83
2023-10-17T14:11:46.296Z,19.71
2023-10-17T14:14:13.858Z,20.08
2023-10-17T14:16:41.836Z,18.95
2023-10-17T14:19:09.952Z,18.27
2023-10-17T14:21:37.016Z,17.49
2023-10-17T14:24:05.365Z,17.12
2023-10-17T14:26:32.308Z,17.01
2023-10-17T14:29:02.195Z,16.63
2023-10-17T14:31:29.809Z,16.29
2023-10-17T14:33:57.041Z,15.83
2023-10-17T14:36:24.061Z,15.78
2023-10-17T14:38:51.162Z,15.82
2023-10-17T14:41:18.097Z,16.09
2023-10-17T14:43:45.117Z,15.96
2023-10-17T14:46:14.922Z,17.01
2023-10-17T14:48:42.019Z,17.10
2023-10-17T14:51:09.238Z,16.69
2023-10-17T14:53:49.396Z,17.23
2023-10-17T14:56:18.246Z,15.99
2023-10-17T14:58:46.887Z,15.53
2023-10-17T15:01:16.841Z,15.26
2023-10-17T15:03:45.125Z,15.44
2023-10-17T15:06:12.198Z,15.62
2023-10-17T15:08:39.221Z,15.18
2023-10-17T15:11:06.474Z,14.78
2023-10-17T15:13:34.139Z,14.65
2023-10-17T15:16:01.835Z,14.91
2023-10-17T15:18:31.797Z,14.77
2023-10-17T15:21:05.612Z,14.54
2023-10-17T15:23:32.648Z,14.17
2023-10-17T15:25:59.658Z,14.16
2023-10-17T15:28:26.770Z,13.99
2023-10-17T15:31:02.775Z,13.93
2023-10-17T15:33:32.410Z,13.87
2023-10-17T15:35:59.504Z,13.81
2023-10-17T15:38:26.806Z,13.52
2023-10-17T15:40:53.992Z,13.48
2023-10-17T15:43:21.047Z,13.42
2023-10-17T15:45:51.152Z,13.49
2023-10-17T15:48:18.270Z,13.13
2023-10-17T15:50:47.919Z,13.15
2023-10-17T15:53:15.020Z,13.16
2023-10-17T15:55:42.257Z,13.12
2023-10-17T15:58:09.244Z,13.08
2023-10-17T16:00:36.270Z,12.89
2023-10-17T16:03:04.131Z,12.77
2023-10-17T16:05:31.184Z,12.71
2023-10-17T16:08:00.800Z,12.60
2023-10-17T16:10:27.787Z,12.65
2023-10-17T16:12:54.859Z,12.33
2023-10-17T16:15:22.146Z,12.37
2023-10-17T16:17:49.147Z,12.28
2023-10-17T16:20:16.206Z,12.24
2023-10-17T16:22:43.274Z,12.32
2023-10-17T16:25:12.916Z,12.18
2023-10-17T16:27:40.162Z,12.13
2023-10-17T16:30:09.276Z,12.05
2023-10-17T16:32:36.678Z,11.97
2023-10-17T16:35:04.708Z,11.93
2023-10-17T16:37:31.726Z,11.88
2023-10-17T16:39:58.820Z,11.76
2023-10-17T16:42:28.874Z,11.71
2023-10-17T16:44:55.876Z,11.64
2023-10-17T16:47:22.918Z,11.53
2023-10-17T16:49:49.872Z,11.52
2023-10-17T16:52:16.884Z,11.46
2023-10-17T16:54:43.859Z,11.36
2023-10-17T16:57:10.920Z,11.46
2023-10-17T16:59:41.214Z,11.44
2023-10-17T17:02:08.545Z,11.27
2023-10-17T17:04:35.554Z,11.27
2023-10-17T17:07:02.677Z,11.30
2023-10-17T17:09:29.741Z,11.34
2023-10-17T17:11:56.851Z,11.26
2023-10-17T17:14:23.923Z,11.11
2023-10-17T17:16:53.924Z,11.08
2023-10-17T17:19:21.918Z,11.09
2023-10-17T17:21:50.199Z,11.14
2023-10-17T17:24:17.797Z,11.01
2023-10-17T17:26:45.435Z,11.01
2023-10-17T17:29:12.563Z,10.93
2023-10-17T17:31:39.651Z,11.01
2023-10-17T17:34:09.640Z,10.92
2023-10-17T17:36:36.967Z,10.90
2023-10-17T17:39:04.523Z,10.82
2023-10-17T17:41:31.500Z,10.76
2023-10-17T17:43:58.533Z,10.87
2023-10-17T17:46:25.602Z,10.77
2023-10-17T17:48:52.768Z,10.75
2023-10-17T17:51:22.446Z,10.81
2023-10-17T17:53:49.468Z,10.83
2023-10-17T17:56:16.491Z,10.72
2023-10-17T17:58:43.499Z,10.68
2023-10-17T18:01:10.724Z,10.74
2023-10-17T18:03:37.972Z,10.66
2023-10-17T18:06:05.696Z,10.58
2023-10-17T18:08:37.859Z,10.54
2023-10-17T18:11:05.085Z,10.64
2023-10-17T18:13:33.484Z,10.67
2023-10-17T18:16:00.572Z,10.65
2023-10-17T18:18:27.657Z,10.68
2023-10-17T18:21:05.728Z,10.59
2023-10-17T18:23:32.689Z,10.56
2023-10-17T18:26:02.323Z,10.46
2023-10-17T18:28:29.368Z,10.43
2023-10-17T18:31:06.799Z,10.50
2023-10-17T18:33:33.962Z,10.45
2023-10-17T18:36:01.050Z,10.40
2023-10-17T18:38:28.040Z,10.44
2023-10-17T18:40:58.254Z,10.40
2023-10-17T18:43:28.561Z,10.38
2023-10-17T18:45:55.737Z,10.37
2023-10-17T18:48:23.300Z,10.33
2023-10-17T18:50:59.149Z,10.27
2023-10-17T18:53:26.289Z,10.33
2023-10-17T18:55:59.409Z,10.29
2023-10-17T18:58:29.941Z,10.17
2023-10-17T19:01:12.536Z,10.20
2023-10-17T19:03:43.052Z,10.15
2023-10-17T19:06:11.260Z,10.13
2023-10-17T19:08:38.646Z,10.14
2023-10-17T19:11:06.244Z,10.08
2023-10-17T19:13:36.418Z,10.07
2023-10-17T19:16:03.788Z,10.12
2023-10-17T19:18:30.822Z,10.12
2023-10-17T19:20:57.846Z,9.96
2023-10-17T19:23:24.885Z,10.05
2023-10-17T19:25:51.888Z,10.00
2023-10-17T19:28:19.037Z,10.04
2023-10-17T19:30:50.333Z,9.96
2023-10-17T19:33:17.402Z,9.92
2023-10-17T19:35:44.529Z,9.91
2023-10-17T19:38:11.554Z,9.89
2023-10-17T19:40:38.607Z,9.86
2023-10-17T19:43:05.699Z,9.86
2023-10-17T19:45:34.157Z,9.81
2023-10-17T19:48:04.606Z,9.82
2023-10-17T19:50:32.651Z,9.90
2023-10-17T19:52:59.590Z,9.90
2023-10-17T19:55:26.548Z,9.89
2023-10-17T19:57:53.603Z,9.81
2023-10-17T20:00:20.926Z,9.88
2023-10-17T20:02:49.399Z,9.75
2023-10-17T20:05:19.805Z,9.71
2023-10-17T20:07:46.769Z,9.65
2023-10-17T20:10:13.760Z,9.65
2023-10-17T20:12:42.260Z,9.68
2023-10-17T20:15:10.307Z,9.58
2023-10-17T20:17:37.454Z,9.59
2023-10-17T20:20:05.614Z,9.59
2023-10-17T20:22:35.274Z,9.52
2023-10-17T20:25:02.917Z,9.49
2023-10-17T20:27:30.188Z,9.52
2023-10-17T20:29:57.553Z,9.42
2023-10-17T20:32:24.713Z,9.44
2023-10-17T20:34:52.891Z,9.42
2023-10-17T20:37:20.548Z,9.39
2023-10-17T20:39:50.192Z,9.32
2023-10-17T20:42:17.159Z,9.38
2023-10-17T20:44:44.110Z,9.37
2023-10-17T20:47:11.133Z,9.42
2023-10-17T20:49:38.326Z,9.44
2023-10-17T20:52:06.681Z,9.41
2023-10-17T20:54:33.739Z,9.41
2023-10-17T20:57:03.348Z,9.26
2023-10-17T20:59:30.688Z,9.27
2023-10-17T21:01:57.871Z,9.25
2023-10-17T21:04:25.032Z,9.24
2023-10-17T21:06:52.234Z,9.17
2023-10-17T21:09:19.436Z,9.26
2023-10-17T21:11:46.434Z,9.24
2023-10-17T21:14:16.046Z,9.28
2023-10-17T21:16:43.315Z,9.31
2023-10-17T21:19:10.488Z,9.28
2023-10-17T21:21:37.593Z,9.23
2023-10-17T21:24:05.555Z,9.24
2023-10-17T21:26:32.644Z,9.31
2023-10-17T21:28:59.666Z,9.25
2023-10-17T21:31:29.398Z,9.22
2023-10-17T21:33:56.661Z,9.16
2023-10-17T21:36:23.758Z,9.13
2023-10-17T21:38:50.726Z,9.05
2023-10-17T21:41:17.763Z,9.06
2023-10-17T21:43:44.781Z,9.05
2023-10-17T21:46:11.868Z,9.02
2023-10-17T21:48:41.547Z,9.09
2023-10-17T21:51:11.251Z,9.08
2023-10-17T21:53:39.002Z,9.00
2023-10-17T21:56:07.611Z,9.07
2023-10-17T21:58:36.092Z,9.08
2023-10-17T22:01:03.466Z,9.03
2023-10-17T22:03:31.470Z,9.03
2023-10-17T22:06:01.999Z,9.05
2023-10-17T22:08:29.078Z,9.01
2023-10-17T22:10:56.056Z,8.94
2023-10-17T22:13:23.019Z,8.91
2023-10-17T22:15:50.150Z,8.98
2023-10-17T22:18:17.249Z,8.90
2023-10-17T22:20:44.301Z,8.87
2023-10-17T22:23:13.908Z,8.78
2023-10-17T22:25:40.941Z,8.73
2023-10-17T22:28:08.055Z,8.68
2023-10-17T22:30:35.258Z,8.77
2023-10-17T22:33:02.387Z,8.70
2023-10-17T22:35:29.450Z,8.77
2023-10-17T22:37:56.415Z,8.67
2023-10-17T22:40:26.062Z,8.56
2023-10-17T22:42:53.141Z,8.58
2023-10-17T22:45:20.169Z,8.53
2023-10-17T22:47:47.214Z,8.49
2023-10-17T22:50:14.313Z,8.46
2023-10-17T22:52:41.410Z,8.47
2023-10-17T22:55:09.472Z,8.34
2023-10-17T22:57:39.401Z,8.46
2023-10-17T23:00:08.167Z,8.60
2023-10-17T23:02:35.387Z,8.41
2023-10-17T23:05:02.494Z,8.37
2023-10-17T23:07:29.684Z,8.39
2023-10-17T23:09:56.660Z,8.33
2023-10-17T23:12:23.666Z,8.35
2023-10-17T23:14:53.265Z,8.38
2023-10-17T23:17:20.279Z,8.34
2023-10-17T23:19:47.371Z,8.38
2023-10-17T23:22:14.451Z,8.29
2023-10-17T23:24:41.415Z,8.19
2023-10-17T23:27:08.401Z,8.35
2023-10-17T23:29:35.383Z,8.29
2023-10-17T23:32:05.493Z,8.27
2023-10-17T23:34:32.457Z,8.22
2023-10-17T23:36:59.680Z,8.26
2023-10-17T23:39:26.807Z,8.15
2023-10-17T23:41:53.890Z,8.19
2023-10-17T23:44:20.884Z,8.22
2023-10-17T23:46:47.900Z,8.18
2023-10-17T23:49:17.604Z,8.12
2023-10-17T23:51:44.626Z,8.23
2023-10-17T23:54:11.761Z,8.28
2023-10-17T23:56:38.806Z,8.36
2023-10-17T23:59:05.873Z,8.29
